sensor_id;sensor_type;location;lat;lon;timestamp;pressure;altitude;pressure_sealevel;temperature;humidity
77631;BME280;66798;47.370;8.552;2024-01-30T06:56:02;98210.00;;;1.02;88.42
77631;BME280;66798;47.370;8.552;2024-01-30T06:58:28;98214.38;;;1.10;88.43
77631;BME280;66798;47.370;8.552;2024-01-30T07:00:54;98209.84;;;1.12;88.70
77631;BME280;66798;47.370;8.552;2024-01-30T07:03:20;98209.53;;;1.15;88.44
77631;BME280;66798;47.370;8.552;2024-01-30T07:05:45;98212.91;;;1.16;87.76
77631;BME280;66798;47.370;8.552;2024-01-30T07:08:10;98221.50;;;1.16;87.76
77631;BME280;66798;47.370;8.552;2024-01-30T07:10:36;98215.16;;;1.19;87.96
77631;BME280;66798;47.370;8.552;2024-01-30T07:13:01;98223.44;;;1.22;88.01
77631;BME280;66798;47.370;8.552;2024-01-30T07:15:27;98226.47;;;1.26;88.41
77631;BME280;66798;47.370;8.552;2024-01-30T07:17:52;98231.16;;;1.31;87.84
77631;BME280;66798;47.370;8.552;2024-01-30T07:20:18;98230.66;;;1.35;87.59
77631;BME280;66798;47.370;8.552;2024-01-30T07:22:45;98229.88;;;1.35;88.13
77631;BME280;66798;47.370;8.552;2024-01-30T07:25:11;98226.97;;;1.30;87.95
77631;BME280;66798;47.370;8.552;2024-01-30T07:27:36;98224.69;;;1.35;87.96
77631;BME280;66798;47.370;8.552;2024-01-30T07:30:02;98229.88;;;1.35;88.08
77631;BME280;66798;47.370;8.552;2024-01-30T07:32:28;98230.53;;;1.28;88.21
77631;BME280;66798;47.370;8.552;2024-01-30T07:34:53;98227.44;;;1.33;88.04
77631;BME280;66798;47.370;8.552;2024-01-30T07:37:19;98229.53;;;1.38;87.71
77631;BME280;66798;47.370;8.552;2024-01-30T07:39:44;98239.56;;;1.41;87.41
77631;BME280;66798;47.370;8.552;2024-01-30T07:42:10;98231.63;;;1.42;87.76
77631;BME280;66798;47.370;8.552;2024-01-30T07:44:35;98248.47;;;1.46;88.63
77631;BME280;66798;47.370;8.552;2024-01-30T07:47:01;98236.97;;;1.41;87.94
77631;BME280;66798;47.370;8.552;2024-01-30T07:49:28;98246.84;;;1.45;88.03
77631;BME280;66798;47.370;8.552;2024-01-30T07:51:53;98239.38;;;1.42;88.06
77631;BME280;66798;47.370;8.552;2024-01-30T07:54:19;98246.50;;;1.48;88.45
77631;BME280;66798;47.370;8.552;2024-01-30T07:56:44;98244.88;;;1.56;88.15
77631;BME280;66798;47.370;8.552;2024-01-30T07:59:10;98241.28;;;1.65;87.84
77631;BME280;66798;47.370;8.552;2024-01-30T08:01:37;98240.56;;;1.71;87.57
77631;BME280;66798;47.370;8.552;2024-01-30T08:04:02;98242.66;;;1.76;87.25
77631;BME280;66798;47.370;8.552;2024-01-30T08:06:28;98244.28;;;1.77;87.06
77631;BME280;66798;47.370;8.552;2024-01-30T08:08:53;98241.50;;;1.78;86.60
77631;BME280;66798;47.370;8.552;2024-01-30T08:11:22;98249.94;;;1.80;86.66
77631;BME280;66798;47.370;8.552;2024-01-30T08:13:52;98244.75;;;1.80;86.91
77631;BME280;66798;47.370;8.552;2024-01-30T08:16:17;98247.00;;;1.83;87.23
77631;BME280;66798;47.370;8.552;2024-01-30T08:18:43;98255.44;;;1.85;87.51
77631;BME280;66798;47.370;8.552;2024-01-30T08:21:08;98255.44;;;1.85;87.51
77631;BME280;66798;47.370;8.552;2024-01-30T08:23:34;98263.00;;;1.95;87.48
77631;BME280;66798;47.370;8.552;2024-01-30T08:26:00;98253.56;;;2.02;87.02
77631;BME280;66798;47.370;8.552;2024-01-30T08:28:25;98264.25;;;2.07;86.73
77631;BME280;66798;47.370;8.552;2024-01-30T08:30:51;98268.28;;;2.10;86.55
77631;BME280;66798;47.370;8.552;2024-01-30T08:33:17;98263.25;;;2.08;87.23
77631;BME280;66798;47.370;8.552;2024-01-30T08:35:42;98260.97;;;2.13;87.16
77631;BME280;66798;47.370;8.552;2024-01-30T08:38:08;98258.94;;;2.24;86.74
77631;BME280;66798;47.370;8.552;2024-01-30T08:40:33;98267.50;;;2.32;86.63
77631;BME280;66798;47.370;8.552;2024-01-30T08:42:59;98255.44;;;2.40;86.78
77631;BME280;66798;47.370;8.552;2024-01-30T08:45:24;98256.53;;;2.45;86.10
77631;BME280;66798;47.370;8.552;2024-01-30T08:47:50;98250.50;;;2.53;86.42
77631;BME280;66798;47.370;8.552;2024-01-30T08:50:16;98253.53;;;2.57;86.39
77631;BME280;66798;47.370;8.552;2024-01-30T08:52:41;98253.66;;;2.63;86.06
77631;BME280;66798;47.370;8.552;2024-01-30T08:58:02;98255.88;;;2.66;85.87
77631;BME280;66798;47.370;8.552;2024-01-30T09:00:30;98247.41;;;2.72;85.73
77631;BME280;66798;47.370;8.552;2024-01-30T09:02:55;98250.91;;;2.80;85.57
77631;BME280;66798;47.370;8.552;2024-01-30T09:05:20;98256.22;;;2.86;85.74
77631;BME280;66798;47.370;8.552;2024-01-30T09:07:46;98251.31;;;2.91;85.10
77631;BME280;66798;47.370;8.552;2024-01-30T09:10:11;98253.19;;;2.97;85.73
77631;BME280;66798;47.370;8.552;2024-01-30T09:12:37;98248.91;;;3.05;85.73
77631;BME280;66798;47.370;8.552;2024-01-30T09:15:03;98254.19;;;3.11;85.71
77631;BME280;66798;47.370;8.552;2024-01-30T09:17:29;98256.28;;;3.16;86.38
77631;BME280;66798;47.370;8.552;2024-01-30T09:19:55;98256.00;;;3.26;85.33
77631;BME280;66798;47.370;8.552;2024-01-30T09:22:20;98243.47;;;3.29;85.14
77631;BME280;66798;47.370;8.552;2024-01-30T09:24:46;98257.38;;;3.36;85.46
77631;BME280;66798;47.370;8.552;2024-01-30T09:27:11;98256.63;;;3.43;84.77
77631;BME280;66798;47.370;8.552;2024-01-30T09:29:37;98257.38;;;3.51;85.13
77631;BME280;66798;47.370;8.552;2024-01-30T09:32:04;98256.28;;;3.60;85.28
77631;BME280;66798;47.370;8.552;2024-01-30T09:34:29;98257.81;;;3.70;84.35
77631;BME280;66798;47.370;8.552;2024-01-30T09:36:55;98259.03;;;3.74;83.82
77631;BME280;66798;47.370;8.552;2024-01-30T09:39:20;98259.50;;;3.77;84.25
77631;BME280;66798;47.370;8.552;2024-01-30T09:42:02;98260.38;;;3.85;83.74
77631;BME280;66798;47.370;8.552;2024-01-30T09:44:30;98263.88;;;3.92;84.28
77631;BME280;66798;47.370;8.552;2024-01-30T09:46:56;98262.31;;;3.97;84.03
77631;BME280;66798;47.370;8.552;2024-01-30T09:49:24;98259.38;;;4.00;84.24
77631;BME280;66798;47.370;8.552;2024-01-30T09:51:50;98254.31;;;4.14;84.34
77631;BME280;66798;47.370;8.552;2024-01-30T09:54:18;98262.63;;;4.24;83.73
77631;BME280;66798;47.370;8.552;2024-01-30T09:56:44;98265.38;;;4.37;84.25
77631;BME280;66798;47.370;8.552;2024-01-30T09:59:09;98264.19;;;4.40;83.13
77631;BME280;66798;47.370;8.552;2024-01-30T10:01:36;98266.31;;;4.51;83.10
77631;BME280;66798;47.370;8.552;2024-01-30T10:04:01;98270.19;;;4.62;83.17
77631;BME280;66798;47.370;8.552;2024-01-30T10:06:27;98269.66;;;4.66;82.75
77631;BME280;66798;47.370;8.552;2024-01-30T10:08:53;98270.72;;;4.72;82.28
77631;BME280;66798;47.370;8.552;2024-01-30T10:11:18;98276.78;;;4.79;81.64
77631;BME280;66798;47.370;8.552;2024-01-30T10:13:44;98273.41;;;4.85;81.69
77631;BME280;66798;47.370;8.552;2024-01-30T10:16:09;98272.06;;;4.89;82.11
77631;BME280;66798;47.370;8.552;2024-01-30T10:18:35;98268.31;;;4.99;82.02
77631;BME280;66798;47.370;8.552;2024-01-30T10:21:00;98264.59;;;5.08;81.61
77631;BME280;66798;47.370;8.552;2024-01-30T10:23:26;98270.44;;;5.17;81.33
77631;BME280;66798;47.370;8.552;2024-01-30T10:25:52;98271.13;;;5.25;80.87
77631;BME280;66798;47.370;8.552;2024-01-30T10:28:17;98265.50;;;5.28;80.47
77631;BME280;66798;47.370;8.552;2024-01-30T10:30:43;98256.75;;;5.43;79.81
77631;BME280;66798;47.370;8.552;2024-01-30T10:33:09;98263.44;;;5.52;79.63
77631;BME280;66798;47.370;8.552;2024-01-30T10:35:34;98253.44;;;5.56;78.36
77631;BME280;66798;47.370;8.552;2024-01-30T10:38:00;98251.09;;;5.67;79.60
77631;BME280;66798;47.370;8.552;2024-01-30T10:40:29;98253.31;;;5.70;78.31
77631;BME280;66798;47.370;8.552;2024-01-30T10:42:55;98254.53;;;5.74;79.02
77631;BME280;66798;47.370;8.552;2024-01-30T10:45:26;98252.31;;;5.78;78.32
77631;BME280;66798;47.370;8.552;2024-01-30T10:47:55;98245.69;;;5.75;78.38
77631;BME280;66798;47.370;8.552;2024-01-30T10:50:26;98242.88;;;5.77;78.31
77631;BME280;66798;47.370;8.552;2024-01-30T10:52:54;98242.88;;;5.77;78.20
77631;BME280;66798;47.370;8.552;2024-01-30T10:55:21;98239.44;;;5.77;78.82
77631;BME280;66798;47.370;8.552;2024-01-30T10:57:47;98229.47;;;5.87;78.60
77631;BME280;66798;47.370;8.552;2024-01-30T11:00:14;98228.88;;;5.91;79.13
77631;BME280;66798;47.370;8.552;2024-01-30T11:02:46;98227.13;;;5.99;78.70
77631;BME280;66798;47.370;8.552;2024-01-30T11:05:13;98219.69;;;6.02;77.20
77631;BME280;66798;47.370;8.552;2024-01-30T11:07:40;98221.75;;;6.13;76.94
77631;BME280;66798;47.370;8.552;2024-01-30T11:10:09;98218.53;;;6.18;76.75
77631;BME280;66798;47.370;8.552;2024-01-30T11:12:39;98218.56;;;6.25;76.17
77631;BME280;66798;47.370;8.552;2024-01-30T11:15:11;98224.38;;;6.27;76.14
77631;BME280;66798;47.370;8.552;2024-01-30T11:20:21;98218.53;;;6.31;75.15
77631;BME280;66798;47.370;8.552;2024-01-30T11:22:50;98219.56;;;6.37;74.26
77631;BME280;66798;47.370;8.552;2024-01-30T11:25:17;98210.53;;;6.46;75.29
77631;BME280;66798;47.370;8.552;2024-01-30T11:27:44;98205.53;;;6.51;75.29
77631;BME280;66798;47.370;8.552;2024-01-30T11:30:10;98202.91;;;6.58;74.61
77631;BME280;66798;47.370;8.552;2024-01-30T11:32:36;98207.31;;;6.64;74.73
77631;BME280;66798;47.370;8.552;2024-01-30T11:35:04;98198.69;;;6.77;74.43
77631;BME280;66798;47.370;8.552;2024-01-30T11:37:31;98196.66;;;6.86;73.93
77631;BME280;66798;47.370;8.552;2024-01-30T11:39:58;98195.44;;;6.88;73.54
77631;BME280;66798;47.370;8.552;2024-01-30T11:42:24;98197.44;;;6.99;73.32
77631;BME280;66798;47.370;8.552;2024-01-30T11:44:53;98197.44;;;7.13;73.12
77631;BME280;66798;47.370;8.552;2024-01-30T11:47:19;98185.34;;;7.18;73.60
77631;BME280;66798;47.370;8.552;2024-01-30T11:49:44;98183.31;;;7.27;72.64
77631;BME280;66798;47.370;8.552;2024-01-30T11:52:10;98185.69;;;7.35;72.26
77631;BME280;66798;47.370;8.552;2024-01-30T11:54:39;98185.50;;;7.37;72.12
77631;BME280;66798;47.370;8.552;2024-01-30T11:57:05;98179.66;;;7.35;72.82
77631;BME280;66798;47.370;8.552;2024-01-30T11:59:30;98184.66;;;7.43;72.23
77631;BME280;66798;47.370;8.552;2024-01-30T12:01:56;98184.03;;;7.48;71.89
77631;BME280;66798;47.370;8.552;2024-01-30T12:04:21;98185.03;;;7.53;71.52
77631;BME280;66798;47.370;8.552;2024-01-30T12:06:51;98181.22;;;7.49;69.93
77631;BME280;66798;47.370;8.552;2024-01-30T12:09:16;98180.38;;;7.55;70.00
77631;BME280;66798;47.370;8.552;2024-01-30T12:11:49;98180.75;;;7.65;70.29
77631;BME280;66798;47.370;8.552;2024-01-30T12:14:16;98182.94;;;7.75;69.57
77631;BME280;66798;47.370;8.552;2024-01-30T12:16:42;98172.00;;;7.85;70.96
77631;BME280;66798;47.370;8.552;2024-01-30T12:19:08;98169.75;;;7.88;68.47
77631;BME280;66798;47.370;8.552;2024-01-30T12:21:34;98167.31;;;7.94;69.67
77631;BME280;66798;47.370;8.552;2024-01-30T12:24:00;98163.03;;;7.99;70.15
77631;BME280;66798;47.370;8.552;2024-01-30T12:26:26;98167.81;;;8.09;70.01
77631;BME280;66798;47.370;8.552;2024-01-30T12:28:56;98161.91;;;8.20;68.76
77631;BME280;66798;47.370;8.552;2024-01-30T19:44:11;98328.84;;;7.41;77.71
77631;BME280;66798;47.370;8.552;2024-01-30T19:46:36;98324.59;;;7.40;77.83
77631;BME280;66798;47.370;8.552;2024-01-30T19:49:02;98321.19;;;7.40;77.74
77631;BME280;66798;47.370;8.552;2024-01-30T19:51:28;98322.78;;;7.41;77.47
77631;BME280;66798;47.370;8.552;2024-01-30T19:53:54;98325.03;;;7.37;77.90
77631;BME280;66798;47.370;8.552;2024-01-30T19:56:20;98315.75;;;7.35;77.90
77631;BME280;66798;47.370;8.552;2024-01-30T19:58:46;98318.78;;;7.32;78.37
77631;BME280;66798;47.370;8.552;2024-01-30T20:01:12;98309.72;;;7.28;78.45
77631;BME280;66798;47.370;8.552;2024-01-30T20:03:38;98313.34;;;7.27;78.19
77631;BME280;66798;47.370;8.552;2024-01-30T20:06:04;98323.63;;;7.21;77.73
77631;BME280;66798;47.370;8.552;2024-01-30T20:08:30;98321.00;;;7.15;78.28
77631;BME280;66798;47.370;8.552;2024-01-30T20:10:58;98329.06;;;7.07;78.75
77631;BME280;66798;47.370;8.552;2024-01-30T20:13:26;98336.69;;;7.01;78.09
77631;BME280;66798;47.370;8.552;2024-01-30T20:15:52;98329.84;;;6.94;78.17
77631;BME280;66798;47.370;8.552;2024-01-30T20:18:17;98333.88;;;6.90;77.61
77631;BME280;66798;47.370;8.552;2024-01-30T20:20:43;98337.88;;;6.86;77.94
77631;BME280;66798;47.370;8.552;2024-01-30T20:23:08;98339.50;;;6.80;78.14
77631;BME280;66798;47.370;8.552;2024-01-30T20:25:34;98330.19;;;6.64;78.32
77631;BME280;66798;47.370;8.552;2024-01-30T20:28:00;98330.84;;;6.73;78.59
77631;BME280;66798;47.370;8.552;2024-01-30T20:30:25;98343.09;;;6.72;78.88
77631;BME280;66798;47.370;8.552;2024-01-30T20:32:51;98342.28;;;6.72;79.23
77631;BME280;66798;47.370;8.552;2024-01-30T20:35:16;98342.06;;;6.67;79.62
77631;BME280;66798;47.370;8.552;2024-01-30T20:37:42;98339.28;;;6.68;79.13
77631;BME280;66798;47.370;8.552;2024-01-30T20:40:08;98337.06;;;6.65;79.90
77631;BME280;66798;47.370;8.552;2024-01-30T20:42:33;98342.66;;;6.62;78.77
77631;BME280;66798;47.370;8.552;2024-01-30T20:45:01;98341.88;;;6.62;78.34
77631;BME280;66798;47.370;8.552;2024-01-30T20:47:26;98345.06;;;6.57;78.61
77631;BME280;66798;47.370;8.552;2024-01-30T20:49:52;98347.06;;;6.55;78.66
77631;BME280;66798;47.370;8.552;2024-01-30T20:52:17;98337.44;;;6.55;78.62
77631;BME280;66798;47.370;8.552;2024-01-30T20:54:44;98340.63;;;6.57;78.29
77631;BME280;66798;47.370;8.552;2024-01-30T20:57:10;98334.00;;;6.55;78.75
77631;BME280;66798;47.370;8.552;2024-01-30T20:59:35;98339.00;;;6.50;78.89
77631;BME280;66798;47.370;8.552;2024-01-30T21:02:00;98333.97;;;6.42;78.44
77631;BME280;66798;47.370;8.552;2024-01-30T21:04:26;98330.53;;;6.41;78.16
77631;BME280;66798;47.370;8.552;2024-01-30T21:06:51;98339.22;;;6.42;80.76
77631;BME280;66798;47.370;8.552;2024-01-30T21:09:17;98337.16;;;6.30;81.42
77631;BME280;66798;47.370;8.552;2024-01-30T21:11:44;98338.72;;;6.18;80.45
77631;BME280;66798;47.370;8.552;2024-01-30T21:14:09;98335.66;;;6.14;83.11
77631;BME280;66798;47.370;8.552;2024-01-30T21:16:35;98337.31;;;6.15;81.16
77631;BME280;66798;47.370;8.552;2024-01-30T21:19:01;98337.91;;;6.18;79.76
77631;BME280;66798;47.370;8.552;2024-01-30T21:21:27;98338.31;;;6.21;80.00
77631;BME280;66798;47.370;8.552;2024-01-30T21:23:54;98338.34;;;6.28;81.87
77631;BME280;66798;47.370;8.552;2024-01-30T21:26:20;98335.56;;;6.29;80.05
77631;BME280;66798;47.370;8.552;2024-01-30T21:28:45;98330.31;;;6.36;79.89
77631;BME280;66798;47.370;8.552;2024-01-30T21:31:11;98323.50;;;6.35;80.38
77631;BME280;66798;47.370;8.552;2024-01-30T21:33:39;98315.06;;;6.40;79.67
77631;BME280;66798;47.370;8.552;2024-01-30T21:36:05;98314.28;;;6.39;79.27
77631;BME280;66798;47.370;8.552;2024-01-30T21:38:30;98315.06;;;6.40;79.52
77631;BME280;66798;47.370;8.552;2024-01-30T21:40:56;98320.47;;;6.31;81.06
77631;BME280;66798;47.370;8.552;2024-01-30T21:43:22;98328.66;;;6.22;82.79
77631;BME280;66798;47.370;8.552;2024-01-30T21:45:47;98331.09;;;6.23;82.12
